LIBDLGKO

Guest
Details From LIBD - Bari Palese Macchie
To LGKO - Kos
Flight Number -
Tags Generated
Created
Modified
Stats Distance 548 nm / 1,014 km
Max Altitude 0 ft / 0 m
Waypoints 3
Social Downloads 0
Likes 0
Share VATSIM

Download

Looking for another format? Having issues loading an existing format? Contact us
Advertisement - Login to hide

Notes

Generated

Route

LIBD KOS30 LGKO

ID Type Via Altitude Latitude Longitude Leg Dist Tot Dist Heading (true) Name
O LIBD APT - 0 ft / 0 m 41.13463˚ 16.74687˚ - 0 nm - -
KOS30 FIX - 0 ft / 0 m 36.97028˚ 26.76164˚ 529 nm 529 nm 115° / 121° -
O LGKO APT - 0 ft / 0 m 36.80364˚ 27.08364˚ 18 nm 547 nm 123° / 123° -

Altitude Profile

Advertisement - Login to hide

Weather


0- 5 10 15 20 25 30 35+ Temperature / ° C

Clouds and Precipitation
Forecast for 2018-05-25 12:00 UTC. Updated 12 minutes ago

Ground ~20,000 ft ~40,000 ft Winds

LIBD

Details ICAO LIBD (BRI)
Name Bari Palese Macchie
Region Italy
Timezone Europe/Rome (UTC+2.0)
Stats Elevation 177 ft / 54 m (AMSL)
Location 41.137865° 16.758318°
Runways 1
Magnetic Variation 3.782° E

METAR

LIBD 250920Z 35009KT 320V030 CAVOK 24/13 Q1015

Decode

TAF

TAF LIBD 250500Z 2506/2606 28008KT 9999 FEW030 BECMG 2508/2510 02012KT BECMG 2517/2519 28008KT

Decode

Departure Runways

ID Width Length Bearing (true) Bearing (mag) Surface Threshold Offset Overrun Length
07 148 ft / 45 m 9,262 ft / 2,823 m 69.39° 65.61° Asphalt 1,257 ft / 383 m 0 ft / 0 m
25 148 ft / 45 m 9,262 ft / 2,823 m 249.42° 245.64° Asphalt 0 ft / 0 m 194 ft / 59 m

LGKO

Details ICAO LGKO (KGS)
Name KOS
Region Greece
Timezone Europe/Athens (UTC+3.0)
Stats Elevation 412 ft / 126 m (AMSL)
Location 36.794403° 27.090764°
Runways 1
Magnetic Variation 4.766° E

METAR

LGKO 250920Z 33010KT 260V040 9999 FEW015 25/15 Q1007

Decode

TAF

TAF LGKO 250500Z 2506/2606 33012KT 9999 FEW010

Decode

Destination Runways

ID Width Length Bearing (true) Bearing (mag) Surface Threshold Offset Overrun Length
14 148 ft / 45 m 7,923 ft / 2,415 m 148.29° 143.52° Asphalt 0 ft / 0 m 240 ft / 73 m
32 148 ft / 45 m 7,923 ft / 2,415 m 328.30° 323.53° Asphalt 0 ft / 0 m 205 ft / 62 m

Popular Alternatives